Time;durP1;ratioP1;P1;durP2;ratioP2;P2;SDS_P1;SDS_P2;PMS_P1;PMS_P2;Temp;Humidity;BMP_temperature;BMP_pressure;BME280_temperature;BME280_humidity;BME280_pressure;Samples;Min_cycle;Max_cycle;Signal;HPM_P1;HPM_P2
2022/06/07 00:02:19;;;;;;;26.92;19.02;;;486.80;2380.80;;;;;;5104611;28;20024;-76
2022/06/07 00:04:45;;;;;;;26.52;18.48;;;486.80;2380.80;;;;;;5093496;28;20122;-76
2022/06/07 00:07:11;;;;;;;30.00;18.23;;;486.70;2380.80;;;;;;5093390;28;20433;-77
2022/06/07 00:09:37;;;;;;;34.38;18.67;;;486.80;2380.80;;;;;;5093291;28;20020;-82
2022/06/07 00:12:04;;;;;;;31.50;18.05;;;486.70;2380.80;;;;;;5092952;28;20362;-77
2022/06/07 00:14:34;;;;;;;30.98;18.40;;;486.70;2380.80;;;;;;5093167;28;20028;-78
2022/06/07 00:17:07;;;;;;;24.13;17.52;;;486.50;2380.80;;;;;;5103842;28;20024;-80
2022/06/07 00:19:34;;;;;;;31.75;18.02;;;486.40;2380.80;;;;;;5114285;28;20030;-79
2022/06/07 00:22:01;;;;;;;31.38;18.13;;;461.70;2380.80;;;;;;5112296;28;20031;-78
2022/06/07 00:24:26;;;;;;;29.27;18.48;;;486.50;2048.00;;;;;;5113330;28;20509;-77
2022/06/07 00:26:53;;;;;;;27.27;16.70;;;486.50;2380.80;;;;;;5114226;28;20063;-78
2022/06/07 00:29:21;;;;;;;28.83;16.70;;;486.70;2380.80;;;;;;5113055;28;20488;-78
2022/06/07 00:31:47;;;;;;;24.20;16.40;;;486.70;2380.80;;;;;;5113055;28;20024;-80
2022/06/07 00:34:13;;;;;;;26.98;17.73;;;486.50;2380.80;;;;;;5114182;28;20106;-76
2022/06/07 00:36:40;;;;;;;28.42;17.60;;;486.60;2380.80;;;;;;5112991;28;20436;-78
2022/06/07 00:39:08;;;;;;;30.35;17.60;;;486.50;2380.80;;;;;;5112852;28;20024;-79
2022/06/07 00:41:34;;;;;;;40.08;20.77;;;486.70;2380.80;;;;;;5113090;28;20042;-78
2022/06/07 00:44:25;;;;;;;32.13;19.92;;;486.50;2380.80;;;;;;5113043;28;20054;-78
2022/06/07 00:47:01;;;;;;;38.95;21.20;;;486.50;2380.80;;;;;;5113174;28;20059;-79
2022/06/07 00:49:34;;;;;;;37.50;21.05;;;461.40;2380.80;;;;;;5113078;28;20024;-80
2022/06/07 00:52:00;;;;;;;27.13;17.77;;;461.10;2380.80;;;;;;5113115;28;20362;-80
2022/06/07 00:54:29;;;;;;;31.27;19.35;;;461.40;2380.80;;;;;;5112576;28;20052;-79
2022/06/07 00:56:56;;;;;;;33.08;18.38;;;461.60;2380.80;;;;;;5112492;28;20078;-79
2022/06/07 00:59:23;;;;;;;33.97;16.92;;;461.70;2380.80;;;;;;5112918;28;20024;-78
2022/06/07 01:01:50;;;;;;;30.38;16.27;;;486.40;2380.80;;;;;;5113100;28;20023;-77
2022/06/07 01:04:17;;;;;;;29.83;17.50;;;486.50;2380.80;;;;;;5112702;28;20028;-79
2022/06/07 01:12:12;;;;;;;21.25;13.38;;;486.50;2380.80;;;;;;5114107;28;20026;-80
2022/06/07 01:14:38;;;;;;;23.80;13.60;;;486.50;2380.80;;;;;;5112923;28;20027;-80
2022/06/07 01:17:05;;;;;;;26.00;15.98;;;486.50;2380.80;;;;;;5112999;28;20054;-77
2022/06/07 01:19:32;;;;;;;35.30;17.17;;;486.40;2380.80;;;;;;5112989;28;20028;-79
2022/06/07 01:21:57;;;;;;;35.33;18.70;;;461.70;2380.80;;;;;;5112785;28;20433;-76
2022/06/07 01:24:23;;;;;;;30.70;17.33;;;461.60;2380.80;;;;;;5112770;28;20120;-81
2022/06/07 01:26:50;;;;;;;25.50;15.27;;;461.40;2380.80;;;;;;5112688;28;20453;-80
2022/06/07 01:29:17;;;;;;;23.48;14.23;;;461.60;2380.80;;;;;;5114134;28;20418;-78
2022/06/07 01:31:43;;;;;;;18.83;12.98;;;461.70;2227.20;;;;;;5112698;28;20456;-77
2022/06/07 01:34:10;;;;;;;16.73;12.15;;;461.70;2304.00;;;;;;5112918;28;20412;-77
2022/06/07 01:36:36;;;;;;;18.33;11.90;;;461.70;2380.80;;;;;;5112534;28;20020;-78
2022/06/07 01:41:55;;;;;;;25.55;15.13;;;486.40;2380.80;;;;;;5119033;28;20030;-76
2022/06/07 01:44:29;;;;;;;25.73;13.50;;;461.70;2380.80;;;;;;5125136;28;20122;-75
2022/06/07 01:46:57;;;;;;;23.33;13.75;;;461.60;2329.60;;;;;;5126505;28;20465;-74
2022/06/07 01:49:27;;;;;;;27.02;15.82;;;461.60;2355.20;;;;;;5129367;28;20023;-75
2022/06/07 01:51:54;;;;;;;36.55;16.23;;;461.70;2380.80;;;;;;5125590;28;20031;-78
2022/06/07 01:54:20;;;;;;;33.22;16.30;;;461.70;2380.80;;;;;;5129136;28;20096;-75
2022/06/07 01:56:47;;;;;;;44.40;17.65;;;461.50;2380.80;;;;;;5129810;28;20026;-74
2022/06/07 01:59:13;;;;;;;35.28;18.13;;;461.10;2380.80;;;;;;5132194;28;20020;-75
2022/06/07 02:01:39;;;;;;;30.73;16.13;;;461.30;2380.80;;;;;;5131786;28;20027;-76
2022/06/07 02:04:05;;;;;;;33.53;17.20;;;461.40;2124.80;;;;;;5131494;28;20031;-76
2022/06/07 02:06:32;;;;;;;30.65;15.90;;;461.40;2380.80;;;;;;5130889;28;20095;-74
2022/06/07 02:08:58;;;;;;;30.95;15.93;;;461.40;2380.80;;;;;;5124138;28;20035;-80
2022/06/07 02:11:26;;;;;;;30.73;15.95;;;461.40;2380.80;;;;;;5117786;28;20020;-79
2022/06/07 02:13:52;;;;;;;28.42;16.13;;;461.40;1996.80;;;;;;5116180;28;20027;-80
2022/06/07 02:16:20;;;;;;;31.95;15.52;;;461.40;2380.80;;;;;;5116150;28;20030;-79
2022/06/07 02:18:46;;;;;;;50.53;18.83;;;461.40;2380.80;;;;;;5124914;28;20030;-80
2022/06/07 02:21:13;;;;;;;39.05;15.60;;;461.30;2380.80;;;;;;5122034;28;20037;-77
2022/06/07 02:23:39;;;;;;;32.45;16.75;;;461.40;2380.80;;;;;;5115917;28;20032;-76
2022/06/07 02:26:14;;;;;;;31.13;16.33;;;461.50;2380.80;;;;;;5115604;28;20517;-79
2022/06/07 02:28:44;;;;;;;32.95;16.58;;;461.40;2380.80;;;;;;5115622;28;20122;-77
2022/06/07 02:31:11;;;;;;;28.90;15.65;;;461.40;2380.80;;;;;;5115610;28;20020;-79
2022/06/07 02:33:39;;;;;;;32.70;17.10;;;461.40;2380.80;;;;;;5115413;28;20503;-79
2022/06/07 02:36:07;;;;;;;36.42;18.52;;;461.40;2380.80;;;;;;5116715;28;20507;-77
2022/06/07 02:38:33;;;;;;;30.75;16.83;;;461.30;2380.80;;;;;;5115365;28;20027;-76
2022/06/07 02:41:01;;;;;;;29.30;16.95;;;461.20;2380.80;;;;;;5116533;28;20484;-76
2022/06/07 02:43:27;;;;;;;28.80;17.73;;;461.20;2380.80;;;;;;5114956;28;20039;-77
2022/06/07 02:45:53;;;;;;;30.77;17.20;;;461.30;2380.80;;;;;;5116121;28;20024;-75
2022/06/07 02:48:19;;;;;;;28.90;17.05;;;460.90;2380.80;;;;;;5115325;28;20024;-78
2022/06/07 02:50:44;;;;;;;25.38;15.93;;;461.10;2380.80;;;;;;5114886;28;20028;-81
2022/06/07 02:53:12;;;;;;;27.13;15.38;;;461.10;2380.80;;;;;;5115994;27;20028;-81
2022/06/07 02:55:38;;;;;;;24.88;15.60;;;461.30;2380.80;;;;;;5118119;27;20023;-79
2022/06/07 02:58:04;;;;;;;24.00;14.90;;;461.30;2380.80;;;;;;5118255;27;20020;-75
2022/06/07 03:00:30;;;;;;;25.95;14.80;;;461.40;2150.40;;;;;;5136479;27;20388;-77
2022/06/07 03:02:56;;;;;;;22.33;14.25;;;461.40;2380.80;;;;;;5118106;27;20076;-79
2022/06/07 03:05:23;;;;;;;23.40;14.82;;;461.40;2380.80;;;;;;5136193;27;20035;-80
2022/06/07 03:07:50;;;;;;;21.67;15.35;;;461.50;2380.80;;;;;;5136224;27;20023;-78
2022/06/07 03:10:17;;;;;;;22.13;13.93;;;461.10;2380.80;;;;;;5117832;27;20111;-77
2022/06/07 03:12:43;;;;;;;23.48;15.10;;;461.50;2380.80;;;;;;5136425;27;20031;-77
2022/06/07 03:15:10;;;;;;;24.08;14.30;;;461.50;2380.80;;;;;;5118009;27;20027;-83
2022/06/07 03:17:37;;;;;;;22.40;13.82;;;461.60;2380.80;;;;;;5117581;27;20027;-76
2022/06/07 03:20:08;;;;;;;21.02;13.13;;;461.70;2380.80;;;;;;5136539;27;20015;-79
2022/06/07 03:22:35;;;;;;;19.58;13.02;;;461.40;2380.80;;;;;;5117987;27;20448;-77
2022/06/07 03:25:05;;;;;;;20.67;14.13;;;461.40;2380.80;;;;;;5117379;27;20087;-76
2022/06/07 03:27:36;;;;;;;22.70;13.82;;;461.30;2380.80;;;;;;5117763;27;20379;-77
2022/06/07 03:30:07;;;;;;;20.23;13.88;;;461.10;2380.80;;;;;;5136186;27;20020;-77
2022/06/07 03:32:34;;;;;;;22.55;13.02;;;461.30;2380.80;;;;;;5135596;27;20042;-78
2022/06/07 03:34:59;;;;;;;24.60;13.23;;;461.40;2380.80;;;;;;5117686;27;20038;-77
2022/06/07 03:37:25;;;;;;;22.70;14.02;;;461.50;2380.80;;;;;;5117728;27;20019;-81
2022/06/07 03:39:51;;;;;;;21.15;13.85;;;461.50;2380.80;;;;;;5117630;27;20027;-80
2022/06/07 03:42:18;;;;;;;25.55;14.13;;;461.50;2380.80;;;;;;5135671;27;20076;-78
2022/06/07 03:44:48;;;;;;;24.52;14.82;;;461.50;2380.80;;;;;;5117082;27;20134;-78
2022/06/07 03:47:18;;;;;;;23.35;14.25;;;461.40;2380.80;;;;;;5136588;27;20043;-78
2022/06/07 03:49:46;;;;;;;24.17;14.63;;;461.40;2380.80;;;;;;5136889;27;20019;-77
2022/06/07 03:52:12;;;;;;;23.70;14.45;;;461.40;2380.80;;;;;;5117849;27;20109;-78
2022/06/07 03:54:41;;;;;;;24.98;14.73;;;461.40;2380.80;;;;;;5136119;27;20131;-77
2022/06/07 03:57:08;;;;;;;26.75;14.60;;;461.40;2380.80;;;;;;5117233;27;20019;-80
2022/06/07 03:59:34;;;;;;;25.23;14.32;;;461.40;2380.80;;;;;;5116770;27;20023;-79
2022/06/07 04:02:00;;;;;;;26.65;14.82;;;461.40;2380.80;;;;;;5116851;27;20027;-78
2022/06/07 04:04:27;;;;;;;20.70;13.43;;;461.50;2380.80;;;;;;5116947;27;20038;-76
2022/06/07 04:09:40;;;;;;;26.73;14.23;;;461.40;2380.80;;;;;;5134878;27;20037;-81
2022/06/07 04:12:12;;;;;;;24.33;15.15;;;461.40;2380.80;;;;;;5116785;27;20059;-77
2022/06/07 04:14:39;;;;;;;27.25;14.85;;;461.40;2380.80;;;;;;5116774;27;20027;-79
2022/06/07 04:17:06;;;;;;;29.02;16.75;;;461.30;2380.80;;;;;;5116788;27;20034;-77
2022/06/07 04:19:36;;;;;;;27.52;15.82;;;461.40;2380.80;;;;;;5116484;27;20023;-79
2022/06/07 04:22:03;;;;;;;22.50;13.50;;;461.30;2380.80;;;;;;5116746;27;20486;-75
2022/06/07 04:24:30;;;;;;;27.52;14.25;;;461.40;2380.80;;;;;;5116732;27;20057;-77
2022/06/07 04:26:56;;;;;;;27.48;13.45;;;461.40;2380.80;;;;;;5116412;27;20023;-78
2022/06/07 04:29:22;;;;;;;23.27;13.32;;;461.20;2380.80;;;;;;5135046;27;20054;-78
2022/06/07 04:31:48;;;;;;;23.55;14.05;;;461.20;2380.80;;;;;;5134966;27;20471;-77
2022/06/07 04:34:14;;;;;;;24.08;14.23;;;461.10;2380.80;;;;;;5134767;27;20031;-76
2022/06/07 04:36:40;;;;;;;22.42;14.55;;;461.20;2380.80;;;;;;5116644;27;20429;-75
2022/06/07 04:39:07;;;;;;;24.15;14.13;;;461.10;2380.80;;;;;;5116544;27;20049;-78
2022/06/07 04:41:33;;;;;;;18.73;13.07;;;461.20;2380.80;;;;;;5116233;27;20058;-77
2022/06/07 04:43:59;;;;;;;16.88;10.98;;;461.20;2380.80;;;;;;5116523;27;20070;-77
2022/06/07 04:46:27;;;;;;;16.88;12.23;;;461.30;2380.80;;;;;;5135104;27;20058;-80
2022/06/07 04:48:53;;;;;;;25.27;13.15;;;461.30;2380.80;;;;;;5116095;27;20372;-78
2022/06/07 04:51:31;;;;;;;16.83;11.45;;;461.30;2380.80;;;;;;5116321;28;20023;-77
2022/06/07 04:53:58;;;;;;;19.65;11.00;;;461.40;2380.80;;;;;;5116158;28;20069;-77
2022/06/07 04:56:27;;;;;;;21.95;11.65;;;461.40;2380.80;;;;;;5134450;28;20019;-75
2022/06/07 04:58:54;;;;;;;16.70;11.55;;;461.20;2380.80;;;;;;5135475;28;20050;-79
2022/06/07 05:01:22;;;;;;;20.73;12.02;;;461.40;2380.80;;;;;;5134473;28;20059;-77
2022/06/07 05:03:49;;;;;;;19.60;12.65;;;461.40;2380.80;;;;;;5116080;28;20027;-78
2022/06/07 05:06:17;;;;;;;14.20;10.93;;;461.40;2380.80;;;;;;5116253;28;20023;-77
2022/06/07 05:08:42;;;;;;;18.48;11.40;;;461.40;2380.80;;;;;;5116022;28;20023;-76
2022/06/07 05:11:08;;;;;;;15.35;10.60;;;461.40;2380.80;;;;;;5116458;28;20039;-79
2022/06/07 05:13:34;;;;;;;15.68;10.93;;;461.50;2380.80;;;;;;5134468;28;20426;-81
2022/06/07 05:16:00;;;;;;;19.08;11.35;;;461.50;2380.80;;;;;;5116003;28;20524;-80
2022/06/07 05:18:26;;;;;;;24.55;12.02;;;461.40;2380.80;;;;;;5134505;28;20102;-79
2022/06/07 05:20:51;;;;;;;21.10;12.60;;;461.30;2380.80;;;;;;5135203;27;20027;-79
2022/06/07 05:23:18;;;;;;;19.92;15.52;;;461.30;2380.80;;;;;;5138250;27;20023;-79
2022/06/07 05:26:06;;;;;;;29.15;16.98;;;461.20;2380.80;;;;;;5138514;27;20063;-80
2022/06/07 05:28:32;;;;;;;21.83;15.02;;;461.20;2201.60;;;;;;5120292;27;20088;-80
2022/06/07 05:30:58;;;;;;;23.90;16.27;;;461.20;2380.80;;;;;;5119875;27;20126;-82
2022/06/07 05:33:24;;;;;;;27.95;17.58;;;461.30;2380.80;;;;;;5120205;27;20031;-81
2022/06/07 05:35:50;;;;;;;23.13;17.90;;;461.20;2380.80;;;;;;5138654;27;20023;-80
2022/06/07 05:38:16;;;;;;;26.42;17.23;;;461.10;2380.80;;;;;;5119825;27;20030;-82
2022/06/07 05:40:42;;;;;;;24.67;16.45;;;461.30;2380.80;;;;;;5138308;27;20023;-81
2022/06/07 05:43:10;;;;;;;20.48;15.48;;;461.40;2380.80;;;;;;5120216;27;20023;-80
2022/06/07 05:45:36;;;;;;;28.70;17.60;;;461.60;2380.80;;;;;;5138342;27;20027;-81
2022/06/07 05:48:02;;;;;;;23.02;16.50;;;461.60;2380.80;;;;;;5133392;27;20007;-79
2022/06/07 05:50:29;;;;;;;18.35;14.90;;;461.60;2380.80;;;;;;5162778;27;20035;-79
2022/06/07 05:52:54;;;;;;;20.20;15.77;;;461.70;2380.80;;;;;;5160886;27;20019;-81
2022/06/07 05:55:20;;;;;;;18.10;14.90;;;486.40;2380.80;;;;;;5122163;27;20131;-77
2022/06/07 05:57:50;;;;;;;22.10;16.27;;;486.50;2380.80;;;;;;5119831;27;20376;-80
2022/06/07 06:00:20;;;;;;;23.90;15.73;;;486.50;2380.80;;;;;;5120727;27;20448;-78
2022/06/07 06:02:47;;;;;;;19.73;15.88;;;486.80;2380.80;;;;;;5119960;27;20072;-79
2022/06/07 06:05:13;;;;;;;21.92;16.23;;;486.80;2380.80;;;;;;5119370;27;20067;-79
2022/06/07 06:10:24;;;;;;;21.70;15.65;;;486.90;2380.80;;;;;;5137680;27;20484;-77
2022/06/07 06:12:50;;;;;;;22.80;15.05;;;486.90;2380.80;;;;;;5118984;27;20059;-79
2022/06/07 06:15:16;;;;;;;21.73;14.75;;;486.80;2380.80;;;;;;5119186;27;20031;-78
2022/06/07 06:17:42;;;;;;;18.42;14.07;;;487.00;2380.80;;;;;;5119262;27;20056;-80
2022/06/07 06:20:11;;;;;;;22.35;14.35;;;486.90;2380.80;;;;;;5118446;27;20020;-76
2022/06/07 06:22:37;;;;;;;21.63;13.70;;;486.90;2380.80;;;;;;5137162;27;20442;-80
2022/06/07 06:25:05;;;;;;;20.55;14.05;;;487.00;2380.80;;;;;;5137346;27;20448;-78
2022/06/07 06:27:32;;;;;;;15.10;13.30;;;487.10;2380.80;;;;;;5118723;27;20076;-79
2022/06/07 06:29:58;;;;;;;18.60;13.50;;;487.00;2380.80;;;;;;5118853;27;20023;-77
2022/06/07 06:32:23;;;;;;;16.33;13.65;;;487.20;2380.80;;;;;;5136883;27;20064;-78
2022/06/07 06:34:50;;;;;;;20.33;13.50;;;487.30;2380.80;;;;;;5118217;27;20035;-75
2022/06/07 06:37:17;;;;;;;22.50;12.70;;;487.30;2380.80;;;;;;5137312;27;20106;-80
2022/06/07 06:39:43;;;;;;;17.25;11.32;;;512.00;2380.80;;;;;;5118543;27;20463;-78
2022/06/07 06:42:09;;;;;;;29.80;13.02;;;512.10;2380.80;;;;;;5118635;27;20122;-78
2022/06/07 06:44:35;;;;;;;17.98;12.35;;;512.10;2380.80;;;;;;5137124;27;20070;-80
2022/06/07 06:47:01;;;;;;;25.13;12.55;;;512.20;2380.80;;;;;;5118403;27;20050;-79
2022/06/07 06:49:28;;;;;;;18.55;10.00;;;512.20;2380.80;;;;;;5136976;27;20083;-78
2022/06/07 06:51:55;;;;;;;13.27;10.60;;;512.30;2380.80;;;;;;5136870;27;20034;-78
2022/06/07 06:54:21;;;;;;;14.30;11.07;;;512.40;2380.80;;;;;;5118061;27;20069;-80
2022/06/07 06:56:48;;;;;;;11.63;10.40;;;512.50;2380.80;;;;;;5118433;27;20054;-81
2022/06/07 06:59:18;;;;;;;12.07;9.77;;;512.60;2380.80;;;;;;5136377;27;20484;-77
2022/06/07 07:01:44;;;;;;;15.10;10.73;;;512.60;2380.80;;;;;;5136443;27;20019;-78
2022/06/07 07:04:18;;;;;;;13.80;11.40;;;512.80;2380.80;;;;;;5118328;27;20051;-77
2022/06/07 07:06:48;;;;;;;20.05;11.30;;;512.80;2380.80;;;;;;5136636;27;20031;-77
2022/06/07 07:09:17;;;;;;;16.30;11.98;;;512.90;2380.80;;;;;;5117853;27;20023;-77
2022/06/07 07:11:48;;;;;;;19.15;11.35;;;512.90;2380.80;;;;;;5118008;27;20164;-80
2022/06/07 07:14:14;;;;;;;15.82;11.40;;;512.90;2380.80;;;;;;5117991;27;20031;-79
2022/06/07 07:16:44;;;;;;;19.75;12.90;;;512.90;2380.80;;;;;;5117701;27;20027;-78
2022/06/07 07:19:11;;;;;;;18.80;13.18;;;537.70;2406.40;;;;;;5136689;27;20107;-74
2022/06/07 07:21:40;;;;;;;16.65;13.63;;;537.90;2406.40;;;;;;5135697;27;20023;-76
2022/06/07 07:24:09;;;;;;;15.63;12.63;;;538.00;2406.40;;;;;;5117713;27;20032;-75
2022/06/07 07:26:36;;;;;;;17.77;12.73;;;538.10;2406.40;;;;;;5117586;27;20059;-73
2022/06/07 07:29:03;;;;;;;17.00;12.40;;;538.20;2406.40;;;;;;5117492;27;20380;-75
2022/06/07 07:31:36;;;;;;;19.95;12.18;;;538.50;2406.40;;;;;;5117575;27;20030;-77
2022/06/07 07:34:04;;;;;;;14.15;12.65;;;563.40;2432.00;;;;;;5117820;27;20421;-73
2022/06/07 07:36:30;;;;;;;16.23;13.25;;;563.60;2432.00;;;;;;5117262;27;20418;-77
2022/06/07 07:38:57;;;;;;;20.00;12.70;;;563.90;2432.00;;;;;;5117439;27;20044;-74
2022/06/07 07:41:26;;;;;;;16.58;13.10;;;564.10;2432.00;;;;;;5117424;27;20067;-78
2022/06/07 07:43:53;;;;;;;14.93;11.65;;;588.90;2432.00;;;;;;5116681;27;20027;-79
2022/06/07 07:46:21;;;;;;;15.20;10.95;;;589.20;2432.00;;;;;;5116548;27;20475;-77
2022/06/07 07:48:48;;;;;;;16.25;11.85;;;589.40;2432.00;;;;;;5117161;27;20464;-75
2022/06/07 07:51:36;;;;;;;13.88;10.85;;;589.60;2432.00;;;;;;5116854;27;20030;-78
2022/06/07 07:54:04;;;;;;;14.15;10.45;;;589.60;2432.00;;;;;;5113505;28;20556;-74
2022/06/07 07:56:30;;;;;;;16.83;11.93;;;589.50;2432.00;;;;;;5114512;28;20491;-78
2022/06/07 07:58:57;;;;;;;16.73;12.20;;;589.40;2432.00;;;;;;5115128;28;20024;-75
2022/06/07 08:01:26;;;;;;;12.90;10.43;;;614.40;2432.00;;;;;;5113544;28;20122;-75
2022/06/07 08:03:53;;;;;;;14.23;9.43;;;589.70;2432.00;;;;;;5113172;28;20038;-75
2022/06/07 08:06:22;;;;;;;15.93;12.18;;;589.60;2432.00;;;;;;5114613;28;20031;-76
2022/06/07 08:08:50;;;;;;;14.70;10.23;;;589.40;2432.00;;;;;;5113436;28;20051;-76
2022/06/07 08:11:18;;;;;;;12.77;11.48;;;589.40;2432.00;;;;;;5113189;28;20027;-76
2022/06/07 08:13:44;;;;;;;16.05;11.20;;;589.70;2432.00;;;;;;5114595;28;20024;-75
2022/06/07 08:16:10;;;;;;;12.35;11.05;;;589.50;2432.00;;;;;;5113269;28;20031;-78
2022/06/07 08:18:37;;;;;;;14.15;10.60;;;589.50;2432.00;;;;;;5112700;28;20024;-77
2022/06/07 08:21:07;;;;;;;15.30;11.05;;;589.40;2432.00;;;;;;5113301;28;20380;-76
2022/06/07 08:23:34;;;;;;;13.13;10.27;;;589.60;2432.00;;;;;;5113224;28;20024;-75
2022/06/07 08:26:01;;;;;;;17.17;11.73;;;589.60;2432.00;;;;;;5112459;28;20031;-77
2022/06/07 08:28:27;;;;;;;11.13;9.93;;;614.70;2432.00;;;;;;5113045;28;20452;-76
2022/06/07 08:30:53;;;;;;;16.13;10.07;;;614.40;2432.00;;;;;;5114078;28;20020;-78
2022/06/07 08:38:59;;;;;;;12.30;8.55;;;615.00;2432.00;;;;;;5114020;28;20027;-76
2022/06/07 08:41:31;;;;;;;12.52;9.63;;;615.30;2432.00;;;;;;5113982;28;20020;-74
2022/06/07 08:44:07;;;;;;;17.37;9.40;;;640.30;2432.00;;;;;;5112997;28;20122;-72
2022/06/07 08:46:36;;;;;;;13.90;9.73;;;640.50;2432.00;;;;;;5112560;28;20476;-74
2022/06/07 08:49:03;;;;;;;11.82;8.60;;;640.70;2432.00;;;;;;5114147;28;20019;-73
2022/06/07 08:51:49;;;;;;;12.55;8.52;;;640.80;2432.00;;;;;;5112849;28;20032;-75
2022/06/07 08:54:20;;;;;;;12.38;8.13;;;640.50;2432.00;;;;;;5112300;28;20059;-72
2022/06/07 08:56:47;;;;;;;11.00;8.00;;;640.70;2432.00;;;;;;5107272;28;20085;-75
2022/06/07 08:59:17;;;;;;;11.30;7.28;;;665.60;2432.00;;;;;;5101461;28;20058;-75
2022/06/07 09:01:59;;;;;;;27.50;8.35;;;665.80;2432.00;;;;;;5105368;28;20422;-73
2022/06/07 09:04:31;;;;;;;14.15;7.75;;;665.80;2432.00;;;;;;5101604;28;20043;-74
2022/06/07 09:07:03;;;;;;;14.23;7.55;;;665.60;2432.00;;;;;;5092013;28;20032;-74
2022/06/07 09:12:26;;;;;;;11.20;7.30;;;666.20;2432.00;;;;;;5096796;28;20099;-76
2022/06/07 09:15:12;;;;;;;11.82;6.72;;;666.00;2432.00;;;;;;5095061;28;20032;-76
2022/06/07 09:17:46;;;;;;;16.08;7.55;;;666.50;2432.00;;;;;;5091346;28;20026;-74
2022/06/07 09:20:22;;;;;;;16.00;8.82;;;666.50;2432.00;;;;;;5092194;28;20020;-74
2022/06/07 09:22:54;;;;;;;10.13;8.05;;;691.40;2432.00;;;;;;5092186;28;20030;-74
2022/06/07 09:25:48;;;;;;;15.25;7.57;;;691.60;2432.00;;;;;;5093034;28;20538;-75
2022/06/07 09:28:34;;;;;;;11.18;6.72;;;691.80;2432.00;;;;;;5091915;28;20028;-75
2022/06/07 09:31:06;;;;;;;10.68;5.72;;;691.90;2432.00;;;;;;5092223;28;20032;-74
2022/06/07 09:33:48;;;;;;;7.18;6.30;;;692.10;2432.00;;;;;;5093205;28;20020;-75
2022/06/07 09:36:25;;;;;;;12.02;5.95;;;692.10;2432.00;;;;;;5091768;28;20032;-75
2022/06/07 09:39:25;;;;;;;7.95;6.10;;;716.80;2432.00;;;;;;5093136;28;20026;-74
2022/06/07 09:42:17;;;;;;;12.32;6.03;;;692.00;2432.00;;;;;;5074086;28;20036;-75
2022/06/07 09:44:55;;;;;;;8.73;5.70;;;716.80;2432.00;;;;;;5098118;28;20028;-74
2022/06/07 09:47:25;;;;;;;12.65;6.10;;;691.90;2432.00;;;;;;5105945;28;20028;-76
2022/06/07 09:50:19;;;;;;;9.10;5.78;;;691.90;2432.00;;;;;;5095717;28;20082;-74
2022/06/07 09:52:57;;;;;;;10.50;6.10;;;692.00;2432.00;;;;;;5091898;28;20039;-75
2022/06/07 09:55:31;;;;;;;9.70;7.43;;;716.80;2432.00;;;;;;5111461;28;20070;-74
2022/06/07 09:58:26;;;;;;;11.05;5.53;;;717.10;2432.00;;;;;;5094975;28;20023;-74
2022/06/07 10:01:04;;;;;;;8.20;5.55;;;716.90;2380.80;;;;;;5048677;28;20035;-75
2022/06/07 10:03:46;;;;;;;7.20;5.85;;;692.00;2406.40;;;;;;5094872;28;20028;-75
2022/06/07 10:06:27;;;;;;;12.02;5.72;;;716.90;2432.00;;;;;;5095117;28;20034;-74
2022/06/07 10:09:15;;;;;;;6.10;4.90;;;717.40;2432.00;;;;;;5115481;28;20076;-75
2022/06/07 10:12:22;;;;;;;9.32;6.20;;;717.00;2329.60;;;;;;5098279;28;20028;-76
2022/06/07 10:14:50;;;;;;;15.48;7.20;;;717.20;2406.40;;;;;;5098733;28;20118;-75
2022/06/07 10:17:38;;;;;;;10.63;6.28;;;717.70;2432.00;;;;;;5098308;28;20372;-75
2022/06/07 10:20:16;;;;;;;7.50;5.20;;;742.60;2432.00;;;;;;5098577;28;20122;-74
2022/06/07 10:23:25;;;;;;;16.30;6.20;;;742.80;2329.60;;;;;;5098577;28;20024;-78
2022/06/07 10:26:22;;;;;;;8.80;5.13;;;743.00;2304.00;;;;;;5071803;28;20545;-77
2022/06/07 10:29:11;;;;;;;9.35;5.88;;;743.10;2304.00;;;;;;5098364;28;20020;-76
2022/06/07 10:31:41;;;;;;;13.70;5.93;;;743.20;2304.00;;;;;;5098142;28;20114;-76
2022/06/07 10:34:34;;;;;;;9.23;5.30;;;768.10;2278.40;;;;;;5098427;28;20031;-77
2022/06/07 10:37:46;;;;;;;13.98;6.38;;;768.40;2278.40;;;;;;5077571;28;20047;-78
2022/06/07 10:40:18;;;;;;;22.35;6.07;;;768.60;2304.00;;;;;;4997183;28;20058;-77
2022/06/07 10:43:01;;;;;;;;;;;768.70;2252.80;;;;;;4998405;28;20032;-79
2022/06/07 10:45:31;;;;;;;8.45;5.30;;;768.50;2150.40;;;;;;5066001;28;19999;-77
2022/06/07 10:48:12;;;;;;;21.90;6.38;;;768.10;2124.80;;;;;;5098134;28;20027;-77
2022/06/07 10:50:47;;;;;;;14.70;5.30;;;768.40;2124.80;;;;;;5097985;28;20024;-77
2022/06/07 10:53:16;;;;;;;10.13;5.47;;;768.30;2073.60;;;;;;5115334;28;20098;-75
2022/06/07 10:55:55;;;;;;;13.18;5.90;;;768.60;2201.60;;;;;;5098063;28;20054;-75
2022/06/07 10:58:38;;;;;;;7.60;4.57;;;768.40;2201.60;;;;;;5105831;27;20030;-75
2022/06/07 11:01:18;;;;;;;14.98;8.27;;;768.50;2150.40;;;;;;5115269;27;20027;-75
2022/06/07 11:10:03;;;;;;;9.63;5.38;;;793.70;2124.80;;;;;;5136539;27;20088;-75
2022/06/07 11:12:54;;;;;;;8.80;4.97;;;793.70;2150.40;;;;;;5117883;27;20039;-74
2022/06/07 11:15:48;;;;;;;25.20;8.77;;;793.70;2124.80;;;;;;5118003;27;20460;-76
2022/06/07 11:18:19;;;;;;;10.18;5.05;;;794.00;2252.80;;;;;;5118007;27;20118;-74
2022/06/07 11:21:12;;;;;;;8.50;4.93;;;793.70;2099.20;;;;;;5136091;27;20030;-74
2022/06/07 11:23:44;;;;;;;10.82;4.70;;;793.90;2099.20;;;;;;5117863;27;20019;-76
2022/06/07 11:26:17;;;;;;;8.20;5.20;;;793.80;2022.40;;;;;;5136063;27;20032;-75
2022/06/07 11:28:56;;;;;;;11.95;5.90;;;794.00;2124.80;;;;;;5136229;27;20019;-75
2022/06/07 11:31:41;;;;;;;16.88;7.70;;;794.20;2124.80;;;;;;5117925;27;20027;-75
2022/06/07 11:34:15;;;;;;;10.68;6.68;;;794.50;2099.20;;;;;;5115531;27;20054;-73
2022/06/07 11:36:42;;;;;;;13.15;6.72;;;794.50;2124.80;;;;;;5117768;27;20031;-73
2022/06/07 11:39:28;;;;;;;10.80;7.63;;;819.30;2124.80;;;;;;5117673;27;20026;-73
2022/06/07 11:42:19;;;;;;;9.25;5.70;;;819.40;2073.60;;;;;;5135782;27;20049;-73
2022/06/07 11:45:03;;;;;;;14.90;9.18;;;819.20;2022.40;;;;;;5116603;28;20039;-73
2022/06/07 11:47:36;;;;;;;10.45;7.65;;;819.30;2048.00;;;;;;5132893;28;20024;-74
2022/06/07 11:50:12;;;;;;;9.30;6.88;;;819.50;2022.40;;;;;;5115542;28;20453;-74
2022/06/07 11:52:56;;;;;;;11.52;8.45;;;819.30;2073.60;;;;;;5096865;28;20020;-74
2022/06/07 11:55:25;;;;;;;9.55;6.68;;;819.50;2073.60;;;;;;5121165;27;20472;-74
2022/06/07 11:57:55;;;;;;;12.40;6.43;;;819.20;2022.40;;;;;;5111688;28;20122;-74
2022/06/07 12:00:23;;;;;;;19.90;9.52;;;819.40;2048.00;;;;;;5115075;28;20032;-74
2022/06/07 12:03:02;;;;;;;14.68;8.00;;;819.60;2073.60;;;;;;5096348;28;20384;-75
2022/06/07 12:05:32;;;;;;;21.80;9.82;;;819.70;2073.60;;;;;;5114817;28;20388;-74
2022/06/07 12:08:30;;;;;;;13.65;6.95;;;819.80;2048.00;;;;;;5096875;28;20044;-73
2022/06/07 12:11:20;;;;;;;14.43;8.27;;;819.90;1996.80;;;;;;5096655;28;20133;-75
2022/06/07 12:14:00;;;;;;;22.27;9.32;;;819.90;2048.00;;;;;;5114444;28;20044;-75
2022/06/07 12:16:32;;;;;;;18.60;8.48;;;819.80;2022.40;;;;;;5114489;28;20019;-74
2022/06/07 12:18:59;;;;;;;11.88;6.97;;;819.80;2176.00;;;;;;5096385;28;20376;-75
2022/06/07 12:21:26;;;;;;;10.80;6.55;;;819.70;2048.00;;;;;;5096212;28;20027;-75
2022/06/07 12:24:14;;;;;;;7.90;5.90;;;819.70;2048.00;;;;;;5114188;28;20035;-77
2022/06/07 12:26:40;;;;;;;12.18;5.03;;;819.60;2073.60;;;;;;5096286;28;20042;-77
2022/06/07 12:29:21;;;;;;;9.13;6.82;;;819.60;1945.60;;;;;;5096199;28;20126;-77
2022/06/07 12:32:00;;;;;;;12.02;6.00;;;819.70;1971.20;;;;;;5095369;28;20483;-77
2022/06/07 12:34:30;;;;;;;6.93;5.35;;;819.80;1945.60;;;;;;5114349;28;20035;-76
2022/06/07 12:37:16;;;;;;;8.85;5.72;;;819.90;1894.40;;;;;;5114225;28;20476;-77
2022/06/07 12:39:52;;;;;;;9.27;5.55;;;819.90;1894.40;;;;;;5096285;28;20040;-75
2022/06/07 12:42:20;;;;;;;6.32;4.85;;;820.00;1971.20;;;;;;5095641;28;20024;-76
2022/06/07 12:44:59;;;;;;;13.82;6.82;;;819.40;1945.60;;;;;;5113426;28;20463;-75
2022/06/07 12:47:34;;;;;;;10.05;6.03;;;819.80;2022.40;;;;;;5095811;28;20069;-75
2022/06/07 12:50:01;;;;;;;9.15;6.13;;;820.00;1945.60;;;;;;5095869;28;20070;-78
2022/06/07 12:52:29;;;;;;;7.43;5.75;;;820.10;1996.80;;;;;;5095612;28;20472;-77